Time;durP1;ratioP1;P1;durP2;ratioP2;P2;SDS_P1;SDS_P2;PMS_P1;PMS_P2;Temp;Humidity;BMP_temperature;BMP_pressure;BME280_temperature;BME280_humidity;BME280_pressure;Samples;Min_cycle;Max_cycle;Signal;HPM_P1;HPM_P2
2021/10/02 00:36:10;;;;;;;2.10;1.52;;;15.00;84.40;;;;;;5001581;28;20052;-74
2021/10/02 00:46:47;;;;;;;2.70;2.47;;;15.10;84.00;;;;;;5010665;28;20506;-75
2021/10/02 00:49:13;;;;;;;3.20;2.78;;;15.10;84.00;;;;;;5015155;28;20756;-75
2021/10/02 00:51:40;;;;;;;4.55;3.17;;;15.10;84.10;;;;;;5008678;28;20049;-75
2021/10/02 00:54:06;;;;;;;3.35;2.67;;;15.10;84.10;;;;;;5017434;28;20034;-74
2021/10/02 00:56:31;;;;;;;3.67;2.80;;;15.10;84.10;;;;;;5013526;28;20030;-74
2021/10/02 00:58:57;;;;;;;4.30;3.03;;;15.20;84.20;;;;;;5013035;28;20113;-75
2021/10/02 01:01:53;;;;;;;4.78;3.47;;;15.20;84.10;;;;;;5014517;28;20022;-75
2021/10/02 01:04:25;;;;;;;5.40;3.65;;;15.20;84.30;;;;;;5009645;28;20637;-75
2021/10/02 01:07:24;;;;;;;4.37;3.20;;;15.20;84.10;;;;;;5002474;28;20029;-75
2021/10/02 01:10:10;;;;;;;8.10;5.70;;;15.10;84.10;;;;;;4999349;28;20025;-75
2021/10/02 01:12:45;;;;;;;4.35;3.53;;;15.10;84.40;;;;;;5010296;28;20030;-75
2021/10/02 01:15:24;;;;;;;3.70;2.88;;;15.10;84.40;;;;;;5015486;28;20121;-75
2021/10/02 01:17:57;;;;;;;7.07;5.03;;;15.10;84.40;;;;;;5007492;28;20030;-76
2021/10/02 01:20:36;;;;;;;7.90;6.57;;;15.10;84.60;;;;;;5008745;28;20116;-75
2021/10/02 01:23:33;;;;;;;8.32;6.40;;;15.00;85.00;;;;;;5006782;28;20091;-76
2021/10/02 01:26:32;;;;;;;8.52;6.22;;;15.00;85.10;;;;;;5012264;28;20551;-75
2021/10/02 01:29:01;;;;;;;5.38;4.13;;;15.00;85.40;;;;;;5012349;28;20030;-75
2021/10/02 01:31:35;;;;;;;5.55;4.57;;;15.00;85.20;;;;;;5007569;28;20391;-75
2021/10/02 01:34:35;;;;;;;6.00;4.07;;;15.00;85.10;;;;;;5017307;28;20133;-76
2021/10/02 01:37:19;;;;;;;6.73;4.30;;;15.00;85.10;;;;;;5004252;28;20029;-77
2021/10/02 01:48:05;;;;;;;4.70;3.72;;;15.10;84.70;;;;;;5009818;28;20424;-77
2021/10/02 01:50:36;;;;;;;5.13;3.38;;;15.10;84.60;;;;;;5018531;28;20034;-77
2021/10/02 01:53:04;;;;;;;5.07;3.40;;;15.20;84.60;;;;;;5014715;28;20097;-77
2021/10/02 01:55:31;;;;;;;5.35;3.33;;;15.20;84.50;;;;;;5008322;28;20042;-77
2021/10/02 01:58:00;;;;;;;6.22;4.60;;;15.20;84.40;;;;;;5009923;28;20421;-76
2021/10/02 02:00:27;;;;;;;6.68;4.95;;;15.20;84.40;;;;;;5011410;28;20029;-76
2021/10/02 02:02:56;;;;;;;6.30;4.82;;;15.20;84.40;;;;;;5013031;28;20536;-77
2021/10/02 02:05:25;;;;;;;4.85;3.92;;;15.20;84.40;;;;;;5013495;28;20068;-75
2021/10/02 02:07:54;;;;;;;4.57;3.13;;;15.20;84.50;;;;;;5009144;28;20546;-77
2021/10/02 02:10:22;;;;;;;6.05;3.58;;;15.20;84.40;;;;;;5014587;28;20412;-76
2021/10/02 02:12:49;;;;;;;6.07;4.75;;;15.20;84.40;;;;;;5040349;28;20041;-77
2021/10/02 02:15:16;;;;;;;6.05;4.18;;;15.20;84.50;;;;;;5008144;28;20518;-76
2021/10/02 02:17:45;;;;;;;6.20;4.40;;;15.20;84.50;;;;;;5010444;28;20025;-76
2021/10/02 02:20:17;;;;;;;4.88;4.00;;;15.20;84.40;;;;;;5010939;28;20079;-77
2021/10/02 02:22:43;;;;;;;5.07;4.40;;;15.20;84.40;;;;;;5019767;28;20040;-76
2021/10/02 02:25:09;;;;;;;5.38;4.40;;;15.20;84.30;;;;;;5009990;28;20026;-77
2021/10/02 02:27:34;;;;;;;6.40;4.72;;;15.20;84.30;;;;;;5016921;28;20056;-76
2021/10/02 02:30:00;;;;;;;5.85;4.65;;;15.20;84.30;;;;;;5014360;28;20057;-77
2021/10/02 02:32:26;;;;;;;3.75;2.90;;;15.20;84.40;;;;;;5010457;28;20240;-76
2021/10/02 02:34:52;;;;;;;3.83;3.00;;;15.20;84.30;;;;;;5009723;28;20468;-77
2021/10/02 02:37:17;;;;;;;5.07;4.55;;;15.20;84.20;;;;;;5009997;28;20030;-76
2021/10/02 02:39:43;;;;;;;5.03;3.88;;;15.20;84.20;;;;;;5011053;28;20113;-76
2021/10/02 02:42:09;;;;;;;6.60;5.25;;;15.30;84.20;;;;;;5010776;28;20026;-76
2021/10/02 02:44:35;;;;;;;6.50;5.22;;;15.20;84.20;;;;;;5012606;28;20030;-77
2021/10/02 02:47:06;;;;;;;7.35;4.50;;;15.30;84.30;;;;;;4997683;28;20061;-77
2021/10/02 02:50:00;;;;;;;4.20;3.65;;;15.20;84.30;;;;;;5016159;28;20041;-77
2021/10/02 02:52:37;;;;;;;5.18;3.40;;;15.30;84.30;;;;;;5004304;28;20049;-77
2021/10/02 02:55:09;;;;;;;6.28;4.40;;;15.30;84.30;;;;;;5005488;28;20029;-77
2021/10/02 02:57:53;;;;;;;8.30;6.07;;;15.20;84.20;;;;;;5008050;28;20472;-77
2021/10/02 03:00:21;;;;;;;7.25;5.15;;;15.20;84.30;;;;;;5019415;28;20045;-77
2021/10/02 03:02:57;;;;;;;6.82;5.72;;;15.20;84.50;;;;;;5010423;28;20407;-77
2021/10/02 03:05:24;;;;;;;6.15;4.95;;;15.10;84.70;;;;;;5004091;28;20037;-77
2021/10/02 03:07:54;;;;;;;5.55;3.80;;;15.10;84.80;;;;;;5014629;28;20388;-77
2021/10/02 03:10:20;;;;;;;5.97;4.05;;;15.20;84.70;;;;;;5007617;28;20042;-77
2021/10/02 03:12:48;;;;;;;6.18;5.13;;;15.20;84.60;;;;;;5007355;28;20042;-77
2021/10/02 03:15:16;;;;;;;7.05;5.38;;;15.20;84.50;;;;;;5006906;28;20029;-76
2021/10/02 03:17:45;;;;;;;5.40;4.80;;;15.20;84.70;;;;;;5017248;28;20395;-76
2021/10/02 03:20:13;;;;;;;5.95;4.07;;;15.20;84.80;;;;;;5018407;28;20629;-77
2021/10/02 03:22:40;;;;;;;5.22;4.13;;;15.20;84.80;;;;;;5011099;28;20029;-76
2021/10/02 03:25:06;;;;;;;8.82;4.35;;;15.20;84.70;;;;;;5017600;28;20029;-77
2021/10/02 03:27:32;;;;;;;12.07;8.63;;;15.20;84.60;;;;;;5022458;28;20026;-77
2021/10/02 03:29:58;;;;;;;8.63;6.47;;;15.10;84.70;;;;;;5022856;28;20051;-77
2021/10/02 03:32:26;;;;;;;9.55;6.30;;;15.10;85.00;;;;;;5029625;28;20037;-77
2021/10/02 03:34:52;;;;;;;7.88;6.10;;;15.00;85.10;;;;;;5016634;28;20058;-77
2021/10/02 03:37:18;;;;;;;7.65;5.13;;;15.00;85.20;;;;;;5018260;28;20079;-76
2021/10/02 03:39:44;;;;;;;8.35;5.75;;;15.00;85.20;;;;;;5019191;28;20061;-77
2021/10/02 03:42:16;;;;;;;7.88;5.60;;;15.10;85.10;;;;;;5025130;28;20421;-77
2021/10/02 03:44:44;;;;;;;5.88;5.05;;;15.10;85.10;;;;;;5025304;28;20033;-76
2021/10/02 03:47:11;;;;;;;10.27;7.78;;;15.10;85.10;;;;;;5004919;28;20033;-76
2021/10/02 03:49:36;;;;;;;8.35;6.00;;;15.00;85.10;;;;;;5019184;28;20093;-76
2021/10/02 03:52:03;;;;;;;6.95;4.97;;;15.00;85.30;;;;;;5018303;28;20076;-76
2021/10/02 03:54:28;;;;;;;13.38;9.27;;;15.00;85.30;;;;;;5021996;28;20112;-76
2021/10/02 03:56:54;;;;;;;10.00;6.60;;;15.00;85.40;;;;;;5019192;28;20607;-76
2021/10/02 03:59:19;;;;;;;10.15;6.35;;;14.90;85.50;;;;;;5013384;28;20503;-76
2021/10/02 04:01:45;;;;;;;11.85;8.35;;;15.00;85.60;;;;;;5019969;28;20026;-77
2021/10/02 04:04:10;;;;;;;6.85;5.38;;;14.90;85.70;;;;;;5010829;28;20036;-76
2021/10/02 04:06:36;;;;;;;6.07;4.07;;;14.90;85.70;;;;;;5023403;28;20029;-76
2021/10/02 04:09:02;;;;;;;14.25;10.43;;;14.90;85.60;;;;;;5019268;28;20064;-76
2021/10/02 04:11:27;;;;;;;8.63;7.43;;;14.90;85.80;;;;;;5011044;28;20065;-76
2021/10/02 04:13:53;;;;;;;9.13;6.82;;;14.80;86.10;;;;;;5013696;28;20067;-76
2021/10/02 04:16:19;;;;;;;6.85;5.40;;;14.80;86.10;;;;;;5010018;28;20101;-75
2021/10/02 04:18:44;;;;;;;9.55;7.18;;;14.90;86.10;;;;;;5021455;28;20467;-76
2021/10/02 04:21:11;;;;;;;10.63;7.68;;;14.90;86.10;;;;;;5012416;28;20034;-76
2021/10/02 04:23:37;;;;;;;8.80;6.53;;;14.80;86.10;;;;;;5011743;28;20030;-76
2021/10/02 04:26:03;;;;;;;8.98;7.43;;;14.80;86.20;;;;;;5008440;28;20116;-76
2021/10/02 04:28:29;;;;;;;10.88;7.55;;;14.80;86.20;;;;;;5019730;28;20026;-76
2021/10/02 04:30:54;;;;;;;9.13;6.53;;;14.80;86.20;;;;;;5015975;28;20033;-76
2021/10/02 04:33:21;;;;;;;9.75;7.55;;;14.80;86.20;;;;;;5014188;28;20033;-75
2021/10/02 04:35:47;;;;;;;10.88;7.65;;;14.80;86.10;;;;;;5007602;28;20028;-77
2021/10/02 04:38:12;;;;;;;11.18;8.18;;;14.80;86.20;;;;;;5014311;28;20458;-77
2021/10/02 04:40:38;;;;;;;8.30;5.95;;;14.80;86.20;;;;;;5016705;28;20030;-77
2021/10/02 04:43:03;;;;;;;12.75;8.77;;;14.80;86.30;;;;;;5014554;28;20032;-77
2021/10/02 04:45:29;;;;;;;10.60;8.10;;;14.80;86.20;;;;;;5019498;28;20422;-77
2021/10/02 04:47:54;;;;;;;7.38;5.00;;;14.80;86.20;;;;;;5008345;28;20033;-77
2021/10/02 04:50:20;;;;;;;13.85;10.23;;;14.80;86.10;;;;;;5017036;28;20045;-77
2021/10/02 04:52:45;;;;;;;13.35;10.73;;;14.80;86.10;;;;;;5019053;28;20045;-76
2021/10/02 04:55:11;;;;;;;12.57;9.43;;;14.80;86.20;;;;;;5022601;28;20074;-76
2021/10/02 04:57:37;;;;;;;12.43;8.88;;;14.70;86.40;;;;;;5009044;28;20516;-76
2021/10/02 05:00:04;;;;;;;8.60;6.32;;;14.70;86.40;;;;;;5020256;28;20540;-77
2021/10/02 05:02:29;;;;;;;13.13;10.07;;;14.70;86.30;;;;;;5009133;28;20033;-76
2021/10/02 05:04:55;;;;;;;12.48;8.55;;;14.70;86.50;;;;;;5023516;28;20032;-76
2021/10/02 05:07:20;;;;;;;10.93;8.93;;;14.70;86.50;;;;;;5010650;28;20022;-76
2021/10/02 05:09:46;;;;;;;8.25;7.13;;;14.70;86.50;;;;;;5020253;28;20437;-77
2021/10/02 05:12:12;;;;;;;12.25;8.75;;;14.70;86.50;;;;;;5009215;28;20034;-77
2021/10/02 05:14:39;;;;;;;10.70;8.48;;;14.70;86.50;;;;;;5013325;28;20041;-76
2021/10/02 05:17:10;;;;;;;10.57;8.27;;;14.70;86.40;;;;;;5013921;28;20088;-75
2021/10/02 05:19:36;;;;;;;8.35;6.70;;;14.70;86.40;;;;;;5014612;28;20033;-76
2021/10/02 05:22:01;;;;;;;11.00;7.32;;;14.80;86.40;;;;;;5006932;28;20079;-76
2021/10/02 05:24:27;;;;;;;10.10;7.75;;;14.70;86.30;;;;;;5008785;28;20026;-75
2021/10/02 05:26:53;;;;;;;8.27;6.47;;;14.80;86.20;;;;;;5019230;28;20024;-75
2021/10/02 05:29:18;;;;;;;11.35;9.10;;;14.80;86.30;;;;;;5008196;28;20029;-75
2021/10/02 05:31:44;;;;;;;10.32;6.93;;;14.70;86.20;;;;;;5009742;28;20750;-75
2021/10/02 05:34:09;;;;;;;7.95;6.45;;;14.70;86.20;;;;;;5007957;28;20053;-74
2021/10/02 05:36:35;;;;;;;9.75;7.85;;;14.70;86.20;;;;;;5011533;28;20030;-75
2021/10/02 05:39:00;;;;;;;7.43;5.20;;;14.70;86.10;;;;;;5005088;28;20511;-75
2021/10/02 05:41:26;;;;;;;9.48;6.68;;;14.70;86.20;;;;;;5009960;28;20113;-75
2021/10/02 05:43:52;;;;;;;11.20;8.85;;;14.70;86.20;;;;;;5013327;28;20045;-75
2021/10/02 05:46:17;;;;;;;10.93;8.27;;;14.60;86.10;;;;;;5012379;28;20013;-75
2021/10/02 05:48:43;;;;;;;11.75;9.27;;;14.60;86.20;;;;;;5013538;28;20037;-75
2021/10/02 05:51:10;;;;;;;9.52;7.80;;;14.60;86.30;;;;;;5038990;28;20081;-75
2021/10/02 05:53:36;;;;;;;11.23;7.88;;;14.50;86.30;;;;;;5011540;28;20688;-76
2021/10/02 05:56:01;;;;;;;12.63;9.80;;;14.50;86.30;;;;;;5012916;28;20027;-76
2021/10/02 05:58:27;;;;;;;7.43;6.63;;;14.40;86.40;;;;;;5021173;28;20679;-75
2021/10/02 06:00:52;;;;;;;8.02;6.97;;;14.40;86.60;;;;;;5007718;28;20021;-75
2021/10/02 06:03:18;;;;;;;9.68;7.80;;;14.40;86.60;;;;;;5026795;28;20031;-75
2021/10/02 06:05:43;;;;;;;10.27;7.28;;;14.40;86.60;;;;;;5006662;28;20025;-75
2021/10/02 06:08:09;;;;;;;6.97;5.47;;;14.40;86.60;;;;;;5001859;28;20362;-76
2021/10/02 06:10:34;;;;;;;7.47;5.40;;;14.40;86.60;;;;;;5011107;28;20049;-75
2021/10/02 06:13:00;;;;;;;7.20;5.80;;;14.40;86.50;;;;;;5001924;28;20042;-76
2021/10/02 06:15:26;;;;;;;11.32;9.02;;;14.30;86.40;;;;;;5002464;28;20040;-76
2021/10/02 06:17:53;;;;;;;6.32;5.70;;;14.30;86.40;;;;;;5000426;28;20057;-77
2021/10/02 06:20:18;;;;;;;8.85;7.32;;;14.30;86.60;;;;;;5001648;28;20029;-77
2021/10/02 06:22:44;;;;;;;12.15;8.90;;;14.30;86.50;;;;;;5003140;28;20476;-76
2021/10/02 06:25:11;;;;;;;13.48;9.88;;;14.30;86.40;;;;;;5002609;28;20113;-77
2021/10/02 06:27:38;;;;;;;11.30;8.55;;;14.30;86.30;;;;;;5004699;28;20022;-77
2021/10/02 06:30:05;;;;;;;12.77;8.45;;;14.30;86.30;;;;;;5001068;28;20092;-76
2021/10/02 06:32:31;;;;;;;11.02;8.07;;;14.30;86.30;;;;;;5000280;28;20030;-77
2021/10/02 06:34:56;;;;;;;10.35;7.68;;;14.30;86.30;;;;;;5007231;28;20026;-76
2021/10/02 06:37:22;;;;;;;8.95;6.38;;;14.40;86.20;;;;;;5000785;28;20030;-76
2021/10/02 06:39:47;;;;;;;10.75;7.63;;;14.40;86.00;;;;;;5003306;28;20113;-77
2021/10/02 06:42:13;;;;;;;11.80;8.15;;;14.40;85.80;;;;;;5006103;28;20026;-76
2021/10/02 06:44:38;;;;;;;8.93;7.60;;;14.40;85.80;;;;;;5003730;28;20532;-75
2021/10/02 06:47:04;;;;;;;6.60;5.22;;;14.40;85.90;;;;;;5004933;28;20037;-75
2021/10/02 06:49:31;;;;;;;10.30;7.25;;;14.50;85.80;;;;;;5000647;28;20026;-75
2021/10/02 06:51:56;;;;;;;8.25;6.93;;;14.60;85.60;;;;;;5001493;28;20041;-76
2021/10/02 06:54:22;;;;;;;7.35;5.18;;;14.60;85.50;;;;;;4999128;28;20022;-75
2021/10/02 06:56:48;;;;;;;8.52;6.53;;;14.60;85.40;;;;;;5004443;28;20026;-76
2021/10/02 06:59:13;;;;;;;6.13;4.78;;;14.70;85.20;;;;;;5000026;28;20026;-76
2021/10/02 07:01:39;;;;;;;11.02;8.73;;;14.80;85.20;;;;;;5003500;28;20072;-75
2021/10/02 07:04:04;;;;;;;10.73;6.97;;;14.80;84.80;;;;;;5009534;28;20113;-76
2021/10/02 07:06:30;;;;;;;10.48;7.88;;;14.80;84.70;;;;;;5006881;28;20062;-75
2021/10/02 07:08:55;;;;;;;11.00;8.25;;;14.80;84.60;;;;;;5009655;28;20032;-75
2021/10/02 07:11:21;;;;;;;10.27;7.57;;;14.80;84.60;;;;;;5010515;28;20034;-77
2021/10/02 07:13:46;;;;;;;13.40;9.55;;;14.80;84.50;;;;;;5012854;28;20033;-76
2021/10/02 07:16:12;;;;;;;10.88;8.30;;;14.70;84.40;;;;;;5009978;28;20030;-76
2021/10/02 07:18:37;;;;;;;10.32;7.40;;;14.70;84.40;;;;;;5012760;28;20105;-76
2021/10/02 07:21:03;;;;;;;9.77;6.93;;;14.80;84.40;;;;;;5018264;28;20052;-77
2021/10/02 07:23:33;;;;;;;13.30;7.70;;;14.80;84.40;;;;;;5006625;28;20113;-77
2021/10/02 07:25:59;;;;;;;8.50;5.93;;;14.90;84.10;;;;;;5005045;28;20020;-75
2021/10/02 07:28:24;;;;;;;7.60;5.75;;;14.90;84.00;;;;;;5004420;28;20033;-76
2021/10/02 07:30:50;;;;;;;9.77;8.20;;;14.90;83.90;;;;;;5009149;28;20134;-76
2021/10/02 07:33:16;;;;;;;8.82;7.00;;;14.90;83.60;;;;;;5003630;28;20038;-75
2021/10/02 07:35:41;;;;;;;11.45;8.32;;;14.90;83.70;;;;;;5002189;28;20026;-76
2021/10/02 07:38:07;;;;;;;11.23;7.80;;;14.90;83.70;;;;;;5002246;28;20030;-76
2021/10/02 07:40:32;;;;;;;8.77;6.90;;;14.90;83.40;;;;;;5009152;28;20026;-75
2021/10/02 07:43:02;;;;;;;7.80;6.05;;;14.90;83.40;;;;;;5009807;28;20639;-77
2021/10/02 07:45:28;;;;;;;8.10;6.18;;;14.90;83.40;;;;;;5009813;28;20053;-81
2021/10/02 07:47:58;;;;;;;10.43;7.68;;;15.00;83.20;;;;;;5006944;28;20060;-77
2021/10/02 07:50:24;;;;;;;11.13;9.10;;;15.00;83.00;;;;;;5006918;28;20383;-78
2021/10/02 07:52:54;;;;;;;11.07;8.60;;;14.90;82.90;;;;;;5010166;28;20049;-77
2021/10/02 07:55:20;;;;;;;11.45;8.18;;;14.90;82.80;;;;;;5003178;28;20045;-77
2021/10/02 07:57:47;;;;;;;13.90;9.68;;;14.90;82.80;;;;;;5005240;28;20026;-76
2021/10/02 08:00:18;;;;;;;9.50;7.40;;;14.90;82.50;;;;;;5005468;28;20101;-77
2021/10/02 08:02:46;;;;;;;6.25;5.15;;;14.90;82.60;;;;;;5004203;28;20057;-76
2021/10/02 08:05:14;;;;;;;11.35;7.05;;;15.00;82.40;;;;;;5002392;28;20460;-76
2021/10/02 08:07:41;;;;;;;8.38;6.85;;;15.10;82.20;;;;;;4998575;28;21340;-75
2021/10/02 08:10:07;;;;;;;10.43;8.25;;;15.10;82.00;;;;;;5003094;28;20082;-76
2021/10/02 08:12:33;;;;;;;8.27;6.60;;;15.20;81.80;;;;;;5003325;28;20049;-74
2021/10/02 08:14:59;;;;;;;8.63;6.78;;;15.20;81.60;;;;;;5002700;28;20053;-76
2021/10/02 08:17:27;;;;;;;7.82;5.85;;;15.30;81.50;;;;;;4998436;28;20058;-76
2021/10/02 08:19:59;;;;;;;10.75;7.30;;;15.40;81.50;;;;;;5004892;28;20018;-76
2021/10/02 08:22:26;;;;;;;7.80;6.10;;;15.40;81.20;;;;;;5003483;28;20040;-76
2021/10/02 08:24:53;;;;;;;7.50;5.63;;;15.40;81.00;;;;;;5000348;28;20030;-77
2021/10/02 08:27:22;;;;;;;11.68;7.40;;;15.50;81.10;;;;;;5001124;28;20094;-76
2021/10/02 08:29:49;;;;;;;11.38;8.77;;;15.60;80.80;;;;;;5000413;28;20467;-77
2021/10/02 08:32:16;;;;;;;9.88;7.20;;;15.60;80.60;;;;;;4999844;28;20084;-77
2021/10/02 08:34:42;;;;;;;7.32;5.60;;;15.60;80.60;;;;;;5005311;28;20022;-77
2021/10/02 08:37:07;;;;;;;6.95;5.25;;;15.60;81.30;;;;;;4997642;28;20045;-77
2021/10/02 08:39:33;;;;;;;7.53;5.50;;;15.70;80.50;;;;;;5001578;28;20027;-77
2021/10/02 08:41:59;;;;;;;7.90;6.47;;;15.80;80.40;;;;;;5000296;28;20045;-77
2021/10/02 08:44:27;;;;;;;7.95;6.53;;;15.90;80.10;;;;;;4998866;28;20033;-77
2021/10/02 08:46:54;;;;;;;12.55;8.65;;;15.90;80.10;;;;;;5003263;28;20105;-77
2021/10/02 08:49:31;;;;;;;9.65;6.35;;;15.80;79.70;;;;;;5004437;28;20300;-79
2021/10/02 08:51:59;;;;;;;7.90;5.95;;;15.80;79.70;;;;;;5001357;28;20043;-77
2021/10/02 08:54:25;;;;;;;9.40;6.20;;;15.90;79.70;;;;;;5003569;28;20022;-77
2021/10/02 08:56:51;;;;;;;7.20;5.53;;;15.80;79.40;;;;;;5005316;28;20404;-76
2021/10/02 08:59:21;;;;;;;6.38;5.05;;;15.80;79.60;;;;;;5001278;28;20030;-76
2021/10/02 09:01:47;;;;;;;9.00;5.10;;;15.80;80.10;;;;;;4998859;28;20018;-80
2021/10/02 09:04:13;;;;;;;7.88;4.70;;;15.90;79.60;;;;;;5001063;28;20388;-79
2021/10/02 09:06:39;;;;;;;7.35;5.18;;;15.90;79.60;;;;;;4997761;28;20488;-76
2021/10/02 09:09:06;;;;;;;6.70;5.10;;;16.00;79.50;;;;;;5001018;28;20036;-77
2021/10/02 09:11:34;;;;;;;9.80;5.97;;;16.00;79.00;;;;;;4997501;28;20136;-77
2021/10/02 09:14:00;;;;;;;10.30;6.05;;;16.00;78.70;;;;;;5000555;28;20049;-77
2021/10/02 09:16:26;;;;;;;9.10;5.47;;;15.90;78.40;;;;;;4998969;28;20052;-78
2021/10/02 09:18:51;;;;;;;7.68;5.35;;;15.90;78.20;;;;;;4997098;28;20071;-78
2021/10/02 09:21:17;;;;;;;7.25;4.68;;;15.80;78.20;;;;;;4997549;28;20406;-79
2021/10/02 09:23:45;;;;;;;8.02;5.05;;;15.80;78.40;;;;;;4998103;28;20022;-78
2021/10/02 09:26:11;;;;;;;7.53;5.25;;;15.80;78.40;;;;;;4999288;28;20061;-79
2021/10/02 09:28:42;;;;;;;5.97;4.32;;;15.80;78.30;;;;;;4999556;28;20026;-79
2021/10/02 09:31:15;;;;;;;8.43;5.40;;;15.90;78.50;;;;;;5015110;28;20164;-76
2021/10/02 09:33:47;;;;;;;5.00;3.45;;;15.90;78.00;;;;;;5048664;28;20134;-79
2021/10/02 09:36:23;;;;;;;4.17;3.13;;;16.00;78.20;;;;;;5013797;28;20018;-78
2021/10/02 09:38:51;;;;;;;5.28;3.80;;;16.10;78.10;;;;;;5034036;28;20798;-78
2021/10/02 09:41:16;;;;;;;4.75;3.47;;;16.20;77.90;;;;;;5022827;28;20031;-78
2021/10/02 09:43:52;;;;;;;5.35;3.53;;;16.30;77.90;;;;;;5016887;28;20044;-78
2021/10/02 09:46:32;;;;;;;7.47;4.75;;;16.30;77.80;;;;;;5008545;28;20018;-78
2021/10/02 09:48:57;;;;;;;5.28;3.78;;;16.40;77.50;;;;;;5000426;28;20022;-79
2021/10/02 09:51:38;;;;;;;7.47;4.43;;;16.40;77.30;;;;;;5007254;28;20041;-78
2021/10/02 09:54:04;;;;;;;8.20;3.63;;;16.40;77.30;;;;;;5004479;28;20109;-79
2021/10/02 09:56:29;;;;;;;6.63;3.75;;;16.50;77.30;;;;;;5003677;28;20117;-77
2021/10/02 09:58:55;;;;;;;7.78;4.45;;;16.50;77.10;;;;;;5002368;28;20474;-77
2021/10/02 10:01:25;;;;;;;6.13;3.42;;;16.50;76.80;;;;;;5003168;28;20030;-77
2021/10/02 10:03:51;;;;;;;6.38;3.80;;;16.60;76.90;;;;;;5001040;28;20029;-77
2021/10/02 10:06:22;;;;;;;7.00;4.10;;;16.70;76.40;;;;;;4998626;28;20034;-77
2021/10/02 10:09:09;;;;;;;5.30;3.15;;;16.80;76.20;;;;;;5001411;28;20022;-76
2021/10/02 10:11:50;;;;;;;6.53;3.50;;;16.80;76.20;;;;;;5018784;28;20536;-77
2021/10/02 10:14:21;;;;;;;7.03;3.83;;;16.90;76.00;;;;;;5007523;28;20430;-79
2021/10/02 10:16:47;;;;;;;6.25;2.95;;;16.80;75.90;;;;;;5003332;28;20117;-77
2021/10/02 10:19:27;;;;;;;4.88;3.22;;;16.80;76.10;;;;;;5031469;28;20099;-77
2021/10/02 10:22:08;;;;;;;4.30;2.78;;;16.80;76.10;;;;;;5038497;28;20028;-78
2021/10/02 10:24:36;;;;;;;3.30;2.35;;;16.90;76.20;;;;;;5020669;28;20026;-79
2021/10/02 10:27:02;;;;;;;5.68;3.50;;;16.80;76.20;;;;;;5007083;28;20029;-79
2021/10/02 10:29:43;;;;;;;3.97;2.38;;;16.80;76.20;;;;;;5006848;28;20025;-79
2021/10/02 10:32:11;;;;;;;5.18;3.05;;;16.70;76.40;;;;;;5026360;28;20512;-79
2021/10/02 10:34:39;;;;;;;5.60;2.97;;;16.80;76.30;;;;;;5034295;28;20040;-79
2021/10/02 10:37:06;;;;;;;5.55;3.35;;;16.90;76.30;;;;;;5036380;28;20030;-79
2021/10/02 10:39:34;;;;;;;6.88;3.70;;;16.90;75.90;;;;;;5039066;28;20029;-80
2021/10/02 10:42:02;;;;;;;5.90;3.63;;;16.90;75.50;;;;;;5016318;28;20038;-80
2021/10/02 10:44:28;;;;;;;6.18;3.67;;;16.80;75.10;;;;;;5016703;28;20038;-79
2021/10/02 10:46:54;;;;;;;3.70;2.67;;;16.80;75.10;;;;;;5026925;28;20116;-79
2021/10/02 10:49:22;;;;;;;3.85;2.22;;;16.90;75.30;;;;;;5025612;28;20171;-79
2021/10/02 10:51:49;;;;;;;4.30;2.60;;;16.90;75.00;;;;;;5018491;28;20025;-78
2021/10/02 10:54:16;;;;;;;5.38;2.75;;;16.90;74.70;;;;;;5033145;28;20087;-79
2021/10/02 10:56:45;;;;;;;5.45;3.10;;;17.00;74.70;;;;;;5038640;28;20049;-78
2021/10/02 10:59:12;;;;;;;2.17;1.95;;;17.10;74.60;;;;;;5112391;28;20027;-79
2021/10/02 11:01:41;;;;;;;4.57;2.67;;;17.20;74.70;;;;;;5112339;28;20043;-79
2021/10/02 11:04:27;;;;;;;2.97;2.13;;;17.30;74.50;;;;;;5112104;28;20028;-78
2021/10/02 11:06:57;;;;;;;2.25;1.60;;;17.30;74.20;;;;;;5031292;28;20489;-78
2021/10/02 11:09:43;;;;;;;2.60;1.60;;;17.50;73.90;;;;;;5033101;28;20059;-78
2021/10/02 11:12:09;;;;;;;1.98;1.70;;;17.60;73.50;;;;;;5033133;28;20368;-78
2021/10/02 11:14:47;;;;;;;3.00;1.65;;;17.70;73.20;;;;;;5035175;28;20555;-78
2021/10/02 11:17:14;;;;;;;2.17;1.40;;;17.70;72.90;;;;;;5029426;28;20025;-77
2021/10/02 11:19:42;;;;;;;3.38;1.70;;;17.70;72.90;;;;;;5018862;28;20052;-78
2021/10/02 11:23:08;;;;;;;2.60;1.60;;;17.80;72.90;;;;;;5032838;28;20436;-78
2021/10/02 11:25:35;;;;;;;1.92;1.60;;;17.70;72.50;;;;;;5044353;28;20438;-78
2021/10/02 11:28:25;;;;;;;2.80;1.92;;;17.70;72.70;;;;;;5124495;27;20483;-78
2021/10/02 11:30:54;;;;;;;2.45;1.75;;;17.60;72.50;;;;;;5011915;28;20030;-78
2021/10/02 11:33:43;;;;;;;2.92;1.50;;;17.50;72.10;;;;;;5044636;28;20092;-77
2021/10/02 11:36:27;;;;;;;2.88;1.65;;;17.40;72.40;;;;;;5034468;28;20044;-78
2021/10/02 11:39:14;;;;;;;1.67;1.48;;;17.30;72.50;;;;;;5010435;28;20027;-78
2021/10/02 11:41:44;;;;;;;3.33;1.73;;;17.40;72.70;;;;;;5008179;28;20075;-77
2021/10/02 11:44:11;;;;;;;2.22;1.45;;;17.30;72.30;;;;;;5006384;28;20037;-77
2021/10/02 11:46:37;;;;;;;2.97;1.85;;;17.40;72.50;;;;;;5008198;28;20503;-78
2021/10/02 11:49:18;;;;;;;2.63;1.50;;;17.50;72.50;;;;;;5029461;28;20056;-78
2021/10/02 11:52:10;;;;;;;3.15;1.40;;;17.50;72.50;;;;;;5068013;28;20061;-78
2021/10/02 11:54:36;;;;;;;;;;;17.70;72.80;;;;;;5095270;28;20027;-78
2021/10/02 11:57:15;;;;;;;4.60;1.60;;;17.80;72.50;;;;;;5050333;28;19916;-79
2021/10/02 11:59:43;;;;;;;2.25;1.50;;;18.00;72.40;;;;;;5035838;28;20024;-78
2021/10/02 12:02:09;;;;;;;1.48;1.38;;;18.00;72.00;;;;;;5092207;28;20029;-78
2021/10/02 12:04:35;;;;;;;2.45;1.20;;;18.00;71.60;;;;;;5045304;28;20021;-78
2021/10/02 12:07:01;;;;;;;2.90;1.60;;;18.00;72.00;;;;;;5055901;28;20046;-78
2021/10/02 12:09:29;;;;;;;1.80;1.27;;;18.10;72.00;;;;;;5002386;28;20026;-78
2021/10/02 12:11:55;;;;;;;1.60;1.30;;;18.10;72.00;;;;;;5011066;28;20037;-77
2021/10/02 12:14:23;;;;;;;3.15;1.80;;;18.20;71.80;;;;;;5017691;28;20104;-77
2021/10/02 12:17:00;;;;;;;1.55;1.08;;;18.20;71.20;;;;;;5009242;28;20396;-78
2021/10/02 12:19:27;;;;;;;2.72;1.40;;;18.30;71.40;;;;;;5008986;28;20021;-78
2021/10/02 12:21:58;;;;;;;1.98;1.40;;;18.30;71.00;;;;;;5008810;28;20113;-78
2021/10/02 12:24:30;;;;;;;2.08;1.23;;;18.30;70.80;;;;;;5012488;28;20821;-78
2021/10/02 12:26:55;;;;;;;2.78;1.58;;;18.40;70.80;;;;;;5008591;28;20074;-77
2021/10/02 12:29:24;;;;;;;1.58;1.30;;;18.50;70.20;;;;;;5009636;28;20030;-78
2021/10/02 12:31:53;;;;;;;2.22;0.90;;;18.50;70.10;;;;;;5008286;28;20568;-77
2021/10/02 12:34:24;;;;;;;1.50;1.30;;;18.60;70.20;;;;;;5006991;28;20408;-77
2021/10/02 12:36:53;;;;;;;1.88;1.27;;;18.60;70.60;;;;;;5008625;28;20018;-77
2021/10/02 12:39:31;;;;;;;3.92;1.85;;;18.60;69.90;;;;;;5008999;28;20022;-77
2021/10/02 12:41:57;;;;;;;2.05;1.40;;;18.40;69.50;;;;;;5008640;28;20030;-77
2021/10/02 12:44:32;;;;;;;2.03;1.13;;;18.40;69.70;;;;;;5008592;28;20124;-77
2021/10/02 12:47:00;;;;;;;2.05;1.45;;;18.40;69.80;;;;;;5008267;28;20030;-77
2021/10/02 12:49:27;;;;;;;2.47;1.60;;;18.30;69.70;;;;;;5008558;28;20018;-77
2021/10/02 12:51:54;;;;;;;2.63;1.63;;;18.30;69.90;;;;;;5008416;28;20041;-77
2021/10/02 12:54:26;;;;;;;2.42;1.33;;;18.30;70.10;;;;;;5002661;28;20026;-77
2021/10/02 12:57:06;;;;;;;1.50;1.27;;;18.30;70.30;;;;;;4998709;28;20026;-77
2021/10/02 13:00:03;;;;;;;2.08;1.10;;;18.20;70.20;;;;;;5007973;28;20086;-77
2021/10/02 13:02:29;;;;;;;1.15;1.00;;;18.30;70.50;;;;;;5009568;28;20037;-77
2021/10/02 13:04:55;;;;;;;2.47;1.38;;;18.20;70.60;;;;;;5008029;28;20022;-77
2021/10/02 13:07:30;;;;;;;1.48;1.35;;;18.10;71.00;;;;;;5006334;28;20060;-77
2021/10/02 13:10:09;;;;;;;1.77;1.20;;;18.00;71.50;;;;;;5008386;28;20548;-77
2021/10/02 13:12:41;;;;;;;1.73;1.10;;;17.90;72.20;;;;;;5008513;28;20046;-77
2021/10/02 13:15:28;;;;;;;1.35;0.93;;;17.90;72.40;;;;;;5008219;28;20018;-77
2021/10/02 13:18:14;;;;;;;2.40;1.10;;;17.90;72.50;;;;;;5010899;28;20034;-77
2021/10/02 13:20:40;;;;;;;1.95;1.27;;;17.90;72.90;;;;;;5022513;28;20018;-77
2021/10/02 13:23:11;;;;;;;1.52;1.30;;;17.90;72.80;;;;;;5009831;28;20527;-77
2021/10/02 13:25:43;;;;;;;1.38;1.27;;;17.90;73.10;;;;;;5007228;28;20510;-77
2021/10/02 13:28:20;;;;;;;1.27;1.10;;;17.90;73.10;;;;;;5007837;28;20053;-77
2021/10/02 13:30:46;;;;;;;1.92;1.20;;;17.80;73.20;;;;;;5008156;28;20026;-77
2021/10/02 13:33:14;;;;;;;1.35;1.08;;;17.80;73.30;;;;;;5007998;28;20049;-77
2021/10/02 13:35:49;;;;;;;2.20;1.20;;;17.90;73.40;;;;;;5005322;28;20527;-76
2021/10/02 13:38:14;;;;;;;1.40;0.90;;;17.80;73.60;;;;;;5006476;28;20032;-76
2021/10/02 13:40:52;;;;;;;1.33;1.00;;;17.80;73.70;;;;;;5002651;28;20449;-76
2021/10/02 13:43:19;;;;;;;1.35;0.85;;;17.80;73.80;;;;;;5004659;28;20038;-77
2021/10/02 13:45:48;;;;;;;1.63;1.17;;;17.90;73.60;;;;;;5004461;28;20029;-77
2021/10/02 13:48:15;;;;;;;1.33;1.10;;;17.90;73.60;;;;;;5003081;28;20018;-77